createdAt,value
2022-10-29T00:21:09.179Z,10.75
2022-10-29T00:23:36.242Z,11.53
2022-10-29T00:26:04.348Z,12.47
2022-10-29T00:28:32.482Z,12.33
2022-10-29T00:31:07.481Z,11.33
2022-10-29T00:33:34.956Z,12.37
2022-10-29T00:36:15.964Z,12.07
2022-10-29T00:38:43.983Z,11.77
2022-10-29T00:41:17.717Z,13.07
2022-10-29T00:43:49.585Z,12.73
2022-10-29T00:46:34.505Z,12.80
2022-10-29T00:49:02.700Z,11.85
2022-10-29T00:51:32.185Z,12.60
2022-10-29T00:54:14.781Z,12.43
2022-10-29T00:56:59.790Z,11.80
2022-10-29T00:59:30.282Z,12.32
2022-10-29T01:01:57.636Z,11.68
2022-10-29T01:04:26.038Z,11.93
2022-10-29T01:06:56.777Z,12.10
2022-10-29T01:09:24.911Z,12.32
2022-10-29T01:12:15.951Z,13.32
2022-10-29T01:15:26.681Z,12.40
2022-10-29T01:18:04.316Z,12.27
2022-10-29T01:20:59.529Z,11.90
2022-10-29T01:23:58.321Z,11.75
2022-10-29T01:26:39.676Z,12.00
2022-10-29T01:29:53.357Z,12.13
2022-10-29T01:32:35.657Z,11.35
2022-10-29T01:35:26.231Z,12.00
2022-10-29T01:38:11.864Z,11.52
2022-10-29T01:40:45.638Z,12.52
2022-10-29T01:43:38.344Z,12.60
2022-10-29T01:46:17.001Z,12.85
2022-10-29T01:48:48.757Z,13.50
2022-10-29T01:51:25.529Z,13.65
2022-10-29T01:53:53.213Z,13.55
2022-10-29T01:58:59.577Z,14.00
2022-10-29T02:01:54.938Z,15.85
2022-10-29T02:04:37.470Z,14.52
2022-10-29T02:07:16.730Z,14.80
2022-10-29T02:09:46.664Z,15.75
2022-10-29T02:12:33.668Z,15.27
2022-10-29T02:15:06.538Z,15.18
2022-10-29T02:17:34.473Z,15.15
2022-10-29T02:20:10.163Z,16.33
2022-10-29T02:22:37.121Z,16.30
2022-10-29T02:25:05.602Z,15.48
2022-10-29T02:27:32.651Z,15.45
2022-10-29T02:29:59.703Z,15.77
2022-10-29T02:32:26.707Z,14.80
2022-10-29T02:34:53.715Z,14.82
2022-10-29T02:37:20.883Z,14.18
2022-10-29T02:39:50.940Z,13.18
2022-10-29T02:42:17.841Z,13.75
2022-10-29T02:44:44.949Z,13.52
2022-10-29T02:47:11.812Z,14.90
2022-10-29T05:55:24.897Z,32.28
2022-10-29T05:57:57.705Z,28.67
2022-10-29T06:00:25.913Z,32.17
2022-10-29T06:02:53.302Z,32.95
2022-10-29T06:05:20.395Z,32.85
2022-10-29T06:07:53.142Z,30.50
2022-10-29T06:10:20.340Z,33.45
2022-10-29T06:12:47.763Z,34.35
2022-10-29T06:15:15.163Z,35.63
2022-10-29T06:17:43.955Z,35.15
2022-10-29T06:20:12.932Z,35.13
2022-10-29T06:22:41.787Z,31.45
2022-10-29T06:25:09.941Z,30.52
2022-10-29T06:27:37.164Z,29.83
2022-10-29T06:30:05.722Z,28.13
2022-10-29T06:32:32.900Z,28.52
2022-10-29T06:34:59.939Z,27.88
2022-10-29T06:37:27.043Z,27.58
2022-10-29T06:39:54.090Z,28.42
2022-10-29T06:42:21.293Z,27.00
2022-10-29T06:44:50.939Z,25.92
2022-10-29T06:47:17.895Z,24.42
2022-10-29T06:52:11.882Z,25.87
2022-10-29T06:54:39.400Z,22.60
2022-10-29T06:57:06.749Z,20.93
2022-10-29T06:59:34.717Z,21.73
2022-10-29T07:02:04.925Z,23.03
2022-10-29T07:07:07.853Z,28.83
2022-10-29T07:09:39.368Z,29.73
2022-10-29T07:12:09.537Z,28.70
2022-10-29T07:14:36.641Z,27.73
2022-10-29T07:17:04.224Z,26.52
2022-10-29T07:19:34.751Z,23.43
2022-10-29T07:22:02.275Z,21.63
2022-10-29T07:24:29.471Z,21.63
2022-10-29T07:26:56.566Z,20.80
2022-10-29T07:29:23.816Z,20.23
2022-10-29T07:31:50.995Z,19.30
2022-10-29T07:34:18.281Z,19.57
2022-10-29T07:36:46.460Z,19.73
2022-10-29T07:39:17.613Z,19.43
2022-10-29T07:41:46.277Z,17.93
2022-10-29T07:44:16.686Z,18.77
2022-10-29T07:46:44.589Z,19.10
2022-10-29T07:49:11.934Z,18.93
2022-10-29T07:51:39.652Z,18.57
2022-10-29T07:54:12.173Z,19.67
2022-10-29T07:56:47.761Z,18.93
2022-10-29T07:59:16.559Z,18.37
2022-10-29T08:01:45.202Z,18.13
2022-10-29T08:04:13.887Z,18.37
2022-10-29T08:06:42.168Z,19.37
2022-10-29T08:09:11.908Z,18.67
2022-10-29T08:12:05.652Z,19.70
2022-10-29T08:14:38.988Z,19.03
2022-10-29T08:17:07.339Z,18.03
2022-10-29T08:19:40.313Z,17.77
2022-10-29T08:22:08.501Z,17.57
2022-10-29T08:24:36.256Z,18.67
2022-10-29T08:27:24.266Z,17.63
2022-10-29T08:29:52.246Z,19.03
2022-10-29T08:32:23.480Z,20.73
2022-10-29T08:43:20.177Z,16.70
2022-10-29T08:45:51.064Z,17.37
2022-10-29T08:48:25.978Z,17.23
2022-10-29T08:51:31.642Z,14.97
2022-10-29T08:56:54.195Z,16.47
2022-10-29T08:59:28.740Z,15.70
2022-10-29T09:02:01.029Z,17.20
2022-10-29T09:04:35.631Z,15.87
2022-10-29T09:07:24.919Z,15.77
2022-10-29T09:13:18.237Z,16.13
2022-10-29T09:15:57.198Z,15.60
2022-10-29T09:18:55.075Z,15.17
2022-10-29T09:21:36.269Z,15.97
2022-10-29T09:24:35.912Z,15.90
2022-10-29T09:30:24.591Z,15.40
2022-10-29T09:33:02.868Z,14.03
2022-10-29T09:35:56.578Z,14.17
2022-10-29T09:38:42.876Z,15.23
2022-10-29T09:41:12.549Z,15.82
2022-10-29T09:43:46.114Z,15.07
2022-10-29T09:46:37.756Z,14.00
2022-10-29T09:49:39.238Z,13.70
2022-10-29T09:52:20.107Z,13.87
2022-10-29T09:54:52.911Z,14.07
2022-10-29T09:57:26.342Z,13.80
2022-10-29T10:00:03.827Z,12.73
2022-10-29T10:02:48.431Z,12.83
2022-10-29T10:05:40.363Z,13.17
2022-10-29T10:08:13.197Z,13.47
2022-10-29T10:10:55.288Z,11.53
2022-10-29T10:13:32.393Z,11.90
2022-10-29T10:16:08.127Z,12.00
2022-10-29T10:21:27.563Z,12.82
2022-10-29T10:24:00.709Z,11.33
2022-10-29T10:26:53.410Z,11.23
2022-10-29T10:29:26.377Z,11.20
2022-10-29T10:31:57.086Z,11.10
2022-10-29T10:34:27.149Z,11.70
2022-10-29T10:37:13.844Z,10.43
2022-10-29T10:39:47.658Z,11.20
2022-10-29T10:42:33.014Z,10.93
2022-10-29T10:45:25.572Z,11.00
2022-10-29T10:47:57.826Z,11.07
2022-10-29T10:50:34.018Z,11.60
2022-10-29T10:53:07.237Z,10.60
2022-10-29T10:58:27.704Z,10.90
2022-10-29T11:01:19.549Z,10.80
2022-10-29T11:03:51.497Z,10.43
2022-10-29T11:36:17.596Z,7.73
2022-10-29T12:01:04.714Z,7.82
2022-10-29T12:03:57.657Z,7.43
2022-10-29T12:06:57.000Z,8.20
2022-10-29T12:09:33.548Z,9.40
2022-10-29T12:12:22.553Z,8.60
2022-10-29T12:15:28.574Z,7.80
2022-10-29T12:18:41.374Z,7.43
2022-10-29T12:21:26.249Z,7.68
2022-10-29T12:32:16.040Z,6.82
2022-10-29T12:35:03.242Z,6.70
2022-10-29T12:37:58.055Z,5.45
2022-10-29T12:40:34.121Z,5.75
2022-10-29T12:43:17.212Z,5.95
2022-10-29T12:46:18.628Z,5.22
2022-10-29T12:48:53.275Z,5.22
2022-10-29T12:51:49.812Z,5.05
2022-10-29T12:54:34.801Z,5.57
2022-10-29T12:57:29.227Z,5.30
2022-10-29T12:59:57.033Z,5.30
2022-10-29T13:02:36.927Z,6.07
2022-10-29T13:05:09.592Z,5.43
2022-10-29T13:07:38.889Z,5.55
2022-10-29T13:10:30.924Z,5.50
2022-10-29T13:13:16.076Z,5.70
2022-10-29T13:16:06.869Z,5.40
2022-10-29T13:18:41.637Z,5.45
2022-10-29T13:21:08.986Z,6.40
2022-10-29T13:23:45.823Z,5.85
2022-10-29T13:26:33.783Z,5.20
2022-10-29T13:29:01.166Z,4.80
2022-10-29T13:31:28.318Z,5.25
2022-10-29T13:33:55.276Z,5.60
2022-10-29T13:36:22.174Z,5.70
2022-10-29T13:39:06.189Z,5.60
2022-10-29T13:41:42.913Z,5.15
2022-10-29T13:44:12.415Z,5.15
2022-10-29T13:47:01.947Z,5.95
2022-10-29T13:49:28.863Z,5.65
2022-10-29T13:52:03.188Z,5.53
2022-10-29T13:54:47.648Z,5.45
2022-10-29T13:57:52.511Z,5.80
2022-10-29T14:00:22.986Z,5.78
2022-10-29T14:03:05.071Z,5.38
2022-10-29T14:05:39.643Z,5.90
2022-10-29T14:08:19.631Z,5.78
2022-10-29T14:10:53.962Z,5.32
2022-10-29T14:13:29.938Z,5.57
2022-10-29T14:16:06.730Z,5.65
2022-10-29T14:37:42.237Z,5.85
2022-10-29T14:50:57.979Z,5.50
2022-10-29T16:06:20.751Z,6.67
2022-10-29T16:08:56.371Z,7.30
2022-10-29T16:11:24.651Z,6.67
2022-10-29T16:13:55.090Z,6.83
2022-10-29T16:16:26.864Z,6.83
2022-10-29T21:08:59.081Z,8.98
2022-10-29T21:11:26.003Z,8.43
2022-10-29T21:13:52.880Z,9.53
2022-10-29T21:16:20.954Z,9.63
2022-10-29T21:18:51.298Z,8.40
2022-10-29T21:21:19.421Z,8.13
2022-10-29T21:23:46.321Z,8.93
2022-10-29T21:26:19.548Z,9.57
2022-10-29T21:28:48.134Z,8.90
2022-10-29T21:31:15.581Z,9.10
2022-10-29T21:33:43.141Z,9.43
2022-10-29T21:36:16.589Z,10.10
2022-10-29T21:38:43.496Z,10.70
2022-10-29T21:41:10.475Z,9.40
2022-10-29T21:43:38.794Z,9.07
2022-10-29T21:46:05.765Z,8.50
2022-10-29T21:48:32.876Z,8.07
2022-10-29T21:51:01.317Z,8.70
2022-10-29T21:53:28.319Z,8.83
2022-10-29T21:56:00.529Z,11.17
2022-10-29T21:58:29.624Z,11.77
2022-10-29T22:01:12.502Z,12.20
2022-10-29T22:03:41.485Z,11.13
2022-10-29T22:06:22.880Z,9.73
2022-10-29T22:08:55.062Z,9.00
2022-10-29T22:11:23.131Z,8.87
